Details From SCEL - Arturo Merino Benitez Intl
To SAWH - Ushuaia_intl_islas Malvinas
Flight Number -
Tags Generated
Created
Modified
Stats Distance 1,294 nm / 2,397 km
Max Altitude 0 ft / 0 m
Waypoints 4
Social Downloads 1
Likes 0
Share VATSIM

Download

Looking for another format? Having issues loading an existing format? Contact us
Advertisement - Login to hide

Notes

Generated

Route

SCEL KADEB USU SAWH

ID Type Via Altitude Latitude Longitude Leg Dist Tot Dist Heading (true) Name
O SCEL APT - 0 ft / 0 m -33.37608˚ -70.78671˚ - 0 nm - -
KADEB FIX - 0 ft / 0 m -50.71806˚ -68.99889˚ 1044 nm 1044 nm 176° / 175° -
USU VOR - 0 ft / 0 m -54.83806˚ -68.28417˚ 248 nm 1293 nm 174° / 174° USHUAIA VOR
O SAWH APT - 0 ft / 0 m -54.84420˚ -68.31752˚ 1 nm 1294 nm 252° / 252° -

Altitude Profile

Advertisement - Login to hide

Weather


0- 5 10 15 20 25 30 35+ Temperature / ° C

Clouds and Precipitation
Forecast for 2017-12-18 00:00 UTC. Updated 13 minutes ago

Ground ~20,000 ft ~40,000 ft Winds

SCEL

Details ICAO SCEL (SCL)
Name Arturo Merino Benitez Intl
Region Chile
Timezone America/Santiago (UTC-3.0)
Stats Elevation 1,550 ft / 472 m (AMSL)
Location -33.389775° -70.794366°
Runways 2
Magnetic Variation 1.800° E

METAR

SCEL 172300Z 20013KT CAVOAUTO 16008KT 130V190 CAVOK 12/05 Q1022

Decode

TAF

TAF SCEL 171610Z 1718/1818 21015KT CAVOK TX32/1719Z TN13/1810Z BECMG 1801/1803 16005KT TEMPO 1806/1812 VRB02KT 7000 NSC BECMG 1814/1816 18010KT

Decode

Departure Runways

ID Width Length Bearing (true) Bearing (mag) Surface Threshold Offset Overrun Length
17L 180 ft / 55 m 10,523 ft / 3,207 m 177.43° 175.63° Asphalt 0 ft / 0 m 0 ft / 0 m
17R 148 ft / 45 m 12,504 ft / 3,811 m 177.44° 175.64° Asphalt 0 ft / 0 m 0 ft / 0 m
35L 148 ft / 45 m 12,504 ft / 3,811 m 357.44° 355.64° Asphalt 0 ft / 0 m 0 ft / 0 m
35R 180 ft / 55 m 10,523 ft / 3,207 m 357.43° 355.63° Asphalt 1,800 ft / 549 m 0 ft / 0 m

SAWH

Details ICAO SAWH (USH)
Name Ushuaia_Intl_Islas Malvinas
Region Argentina
Timezone America/Argentina/Ushuaia (UTC-3.0)
Stats Elevation 91 ft / 28 m (AMSL)
Location -54.843310° -68.294897°
Runways 1
Magnetic Variation 12.406° E

METAR

SAWH 172300Z 23019G31KT 9999 SCT040 10/03 Q0986

Decode

TAF

TAF SAWH 171700Z 1718/1818 32015G25KT 9999 -SHRA SCT030 BKN090 TX14/1719Z TN04/17810Z BECMG 1723/1801 27020G30KT

Decode

Destination Runways

ID Width Length Bearing (true) Bearing (mag) Surface Threshold Offset Overrun Length
07 148 ft / 45 m 9,531 ft / 2,905 m 86.11° 73.70° Concrete 591 ft / 180 m 295 ft / 90 m
25 148 ft / 45 m 9,531 ft / 2,905 m 266.08° 253.67° Concrete 899 ft / 274 m 98 ft / 30 m

Approach Navaids

Runway Type Ident Frequency Range Bearing (true) Bearing (mag) Slope Elevation
25 Localiser US 111.30 MHz 18 nm / 33 km 266.19° 253.78° - 54 ft / 16 m (AMSL)
25 Glidescope US 111.30 MHz 10 nm / 19 km 266.10° 253.69° 3.50° 91 ft / 28 m (AMSL)
25 DME US 111.30 MHz 18 nm / 33 km - - - 92 ft / 28 m (AMSL)

Popular Alternatives